sensor_id;sensor_type;location;lat;lon;timestamp;P1;P2;P0
40947;PMS5003;49382;-25.924;28.194;2023-04-03T00:00:14;30;30;
40947;PMS5003;49382;-25.924;28.194;2023-04-03T00:02:39;31;30;
40947;PMS5003;49382;-25.924;28.194;2023-04-03T00:05:04;31;31;
40947;PMS5003;49382;-25.924;28.194;2023-04-03T00:07:29;31;31;
40947;PMS5003;49382;-25.924;28.194;2023-04-03T00:09:55;29;29;
40947;PMS5003;49382;-25.924;28.194;2023-04-03T00:12:20;32;32;
40947;PMS5003;49382;-25.924;28.194;2023-04-03T00:14:45;29;29;
40947;PMS5003;49382;-25.924;28.194;2023-04-03T00:17:11;34;34;
40947;PMS5003;49382;-25.924;28.194;2023-04-03T00:19:36;32;32;
40947;PMS5003;49382;-25.924;28.194;2023-04-03T00:22:02;32;31;
40947;PMS5003;49382;-25.924;28.194;2023-04-03T00:24:27;29;29;
40947;PMS5003;49382;-25.924;28.194;2023-04-03T00:26:52;29;29;
40947;PMS5003;49382;-25.924;28.194;2023-04-03T00:29:17;32;30;
40947;PMS5003;49382;-25.924;28.194;2023-04-03T00:31:43;31;31;
40947;PMS5003;49382;-25.924;28.194;2023-04-03T00:34:08;29;29;
40947;PMS5003;49382;-25.924;28.194;2023-04-03T00:36:34;30;30;
40947;PMS5003;49382;-25.924;28.194;2023-04-03T00:39:00;29;28;
40947;PMS5003;49382;-25.924;28.194;2023-04-03T00:41:25;28;28;
40947;PMS5003;49382;-25.924;28.194;2023-04-03T00:43:50;29;29;
40947;PMS5003;49382;-25.924;28.194;2023-04-03T00:46:15;30;29;
40947;PMS5003;49382;-25.924;28.194;2023-04-03T00:48:41;31;31;
40947;PMS5003;49382;-25.924;28.194;2023-04-03T00:51:07;28;28;
40947;PMS5003;49382;-25.924;28.194;2023-04-03T00:53:33;29;29;
40947;PMS5003;49382;-25.924;28.194;2023-04-03T00:55:56;30;29;
40947;PMS5003;49382;-25.924;28.194;2023-04-03T00:58:22;30;30;
40947;PMS5003;49382;-25.924;28.194;2023-04-03T01:00:48;32;31;
40947;PMS5003;49382;-25.924;28.194;2023-04-03T01:03:12;30;29;
40947;PMS5003;49382;-25.924;28.194;2023-04-03T01:05:37;26;26;
40947;PMS5003;49382;-25.924;28.194;2023-04-03T01:08:03;27;27;
40947;PMS5003;49382;-25.924;28.194;2023-04-03T01:10:28;29;29;
40947;PMS5003;49382;-25.924;28.194;2023-04-03T01:12:53;25;25;
40947;PMS5003;49382;-25.924;28.194;2023-04-03T01:15:20;23;23;
40947;PMS5003;49382;-25.924;28.194;2023-04-03T01:17:45;24;24;
40947;PMS5003;49382;-25.924;28.194;2023-04-03T01:22:37;25;24;
40947;PMS5003;49382;-25.924;28.194;2023-04-03T01:25:01;26;26;
40947;PMS5003;49382;-25.924;28.194;2023-04-03T01:27:26;29;29;
40947;PMS5003;49382;-25.924;28.194;2023-04-03T01:29:51;30;30;
40947;PMS5003;49382;-25.924;28.194;2023-04-03T01:32:16;32;32;
40947;PMS5003;49382;-25.924;28.194;2023-04-03T01:34:42;31;31;
40947;PMS5003;49382;-25.924;28.194;2023-04-03T01:37:07;31;31;
40947;PMS5003;49382;-25.924;28.194;2023-04-03T01:39:32;31;31;
40947;PMS5003;49382;-25.924;28.194;2023-04-03T01:41:58;31;31;
40947;PMS5003;49382;-25.924;28.194;2023-04-03T01:44:23;29;29;
40947;PMS5003;49382;-25.924;28.194;2023-04-03T01:46:49;29;29;
40947;PMS5003;49382;-25.924;28.194;2023-04-03T01:49:14;29;28;
40947;PMS5003;49382;-25.924;28.194;2023-04-03T01:51:39;31;31;
40947;PMS5003;49382;-25.924;28.194;2023-04-03T01:54:04;27;27;
40947;PMS5003;49382;-25.924;28.194;2023-04-03T01:56:30;29;29;
40947;PMS5003;49382;-25.924;28.194;2023-04-03T01:58:55;28;28;
40947;PMS5003;49382;-25.924;28.194;2023-04-03T02:01:20;28;27;
40947;PMS5003;49382;-25.924;28.194;2023-04-03T02:03:46;29;29;
40947;PMS5003;49382;-25.924;28.194;2023-04-03T02:06:11;28;28;
40947;PMS5003;49382;-25.924;28.194;2023-04-03T02:08:36;30;30;
40947;PMS5003;49382;-25.924;28.194;2023-04-03T02:11:01;29;29;
40947;PMS5003;49382;-25.924;28.194;2023-04-03T02:13:27;29;29;
40947;PMS5003;49382;-25.924;28.194;2023-04-03T02:15:52;32;31;
40947;PMS5003;49382;-25.924;28.194;2023-04-03T02:18:18;31;30;
40947;PMS5003;49382;-25.924;28.194;2023-04-03T02:20:43;36;35;
40947;PMS5003;49382;-25.924;28.194;2023-04-03T02:23:09;32;32;
40947;PMS5003;49382;-25.924;28.194;2023-04-03T02:25:34;31;30;
40947;PMS5003;49382;-25.924;28.194;2023-04-03T02:28:00;30;30;
40947;PMS5003;49382;-25.924;28.194;2023-04-03T02:30:25;33;33;
40947;PMS5003;49382;-25.924;28.194;2023-04-03T02:32:51;34;34;
40947;PMS5003;49382;-25.924;28.194;2023-04-03T02:35:16;30;30;
40947;PMS5003;49382;-25.924;28.194;2023-04-03T02:37:41;33;32;
40947;PMS5003;49382;-25.924;28.194;2023-04-03T02:40:08;34;34;
40947;PMS5003;49382;-25.924;28.194;2023-04-03T02:42:32;30;30;
40947;PMS5003;49382;-25.924;28.194;2023-04-03T02:44:57;32;32;
40947;PMS5003;49382;-25.924;28.194;2023-04-03T02:47:22;30;30;
40947;PMS5003;49382;-25.924;28.194;2023-04-03T02:49:47;30;29;
40947;PMS5003;49382;-25.924;28.194;2023-04-03T02:52:12;31;29;
40947;PMS5003;49382;-25.924;28.194;2023-04-03T02:54:37;30;30;
40947;PMS5003;49382;-25.924;28.194;2023-04-03T02:57:03;31;29;
40947;PMS5003;49382;-25.924;28.194;2023-04-03T02:59:29;28;28;
40947;PMS5003;49382;-25.924;28.194;2023-04-03T03:01:54;30;30;
40947;PMS5003;49382;-25.924;28.194;2023-04-03T03:04:19;32;31;
40947;PMS5003;49382;-25.924;28.194;2023-04-03T03:06:45;33;33;
40947;PMS5003;49382;-25.924;28.194;2023-04-03T03:09:10;29;29;
40947;PMS5003;49382;-25.924;28.194;2023-04-03T03:11:36;29;29;
40947;PMS5003;49382;-25.924;28.194;2023-04-03T03:14:01;29;28;
40947;PMS5003;49382;-25.924;28.194;2023-04-03T03:16:27;28;28;
40947;PMS5003;49382;-25.924;28.194;2023-04-03T03:18:53;33;32;
40947;PMS5003;49382;-25.924;28.194;2023-04-03T03:21:19;33;33;
40947;PMS5003;49382;-25.924;28.194;2023-04-03T03:23:44;32;30;
40947;PMS5003;49382;-25.924;28.194;2023-04-03T03:26:10;39;38;
40947;PMS5003;49382;-25.924;28.194;2023-04-03T03:28:35;31;31;
40947;PMS5003;49382;-25.924;28.194;2023-04-03T03:31:00;32;31;
40947;PMS5003;49382;-25.924;28.194;2023-04-03T03:33:25;31;31;
40947;PMS5003;49382;-25.924;28.194;2023-04-03T03:35:51;30;30;
40947;PMS5003;49382;-25.924;28.194;2023-04-03T03:38:15;36;35;
40947;PMS5003;49382;-25.924;28.194;2023-04-03T03:40:41;38;37;
40947;PMS5003;49382;-25.924;28.194;2023-04-03T03:43:06;33;33;
40947;PMS5003;49382;-25.924;28.194;2023-04-03T03:45:32;35;35;
40947;PMS5003;49382;-25.924;28.194;2023-04-03T03:47:58;32;31;
40947;PMS5003;49382;-25.924;28.194;2023-04-03T03:50:23;31;30;
40947;PMS5003;49382;-25.924;28.194;2023-04-03T03:52:48;32;32;
40947;PMS5003;49382;-25.924;28.194;2023-04-03T03:55:14;29;29;
40947;PMS5003;49382;-25.924;28.194;2023-04-03T03:57:39;31;30;
40947;PMS5003;49382;-25.924;28.194;2023-04-03T04:00:05;33;32;
40947;PMS5003;49382;-25.924;28.194;2023-04-03T04:02:30;33;33;
40947;PMS5003;49382;-25.924;28.194;2023-04-03T04:04:54;32;32;
40947;PMS5003;49382;-25.924;28.194;2023-04-03T04:07:19;34;33;
40947;PMS5003;49382;-25.924;28.194;2023-04-03T04:09:45;33;33;
40947;PMS5003;49382;-25.924;28.194;2023-04-03T04:12:11;33;33;
40947;PMS5003;49382;-25.924;28.194;2023-04-03T04:14:36;38;37;
40947;PMS5003;49382;-25.924;28.194;2023-04-03T04:17:01;31;31;
40947;PMS5003;49382;-25.924;28.194;2023-04-03T04:19:27;31;31;
40947;PMS5003;49382;-25.924;28.194;2023-04-03T04:21:52;36;35;
40947;PMS5003;49382;-25.924;28.194;2023-04-03T04:24:18;33;33;
40947;PMS5003;49382;-25.924;28.194;2023-04-03T04:26:43;34;33;
40947;PMS5003;49382;-25.924;28.194;2023-04-03T04:29:09;32;32;
40947;PMS5003;49382;-25.924;28.194;2023-04-03T04:31:33;37;35;
40947;PMS5003;49382;-25.924;28.194;2023-04-03T04:33:59;33;32;
40947;PMS5003;49382;-25.924;28.194;2023-04-03T04:36:24;32;32;
40947;PMS5003;49382;-25.924;28.194;2023-04-03T04:38:50;35;33;
40947;PMS5003;49382;-25.924;28.194;2023-04-03T04:41:15;33;33;
40947;PMS5003;49382;-25.924;28.194;2023-04-03T04:43:41;36;36;
40947;PMS5003;49382;-25.924;28.194;2023-04-03T04:46:07;30;30;
40947;PMS5003;49382;-25.924;28.194;2023-04-03T04:48:31;35;35;
40947;PMS5003;49382;-25.924;28.194;2023-04-03T04:50:57;33;32;
40947;PMS5003;49382;-25.924;28.194;2023-04-03T04:53:22;36;35;
40947;PMS5003;49382;-25.924;28.194;2023-04-03T04:55:47;34;34;
40947;PMS5003;49382;-25.924;28.194;2023-04-03T04:58:13;33;33;
40947;PMS5003;49382;-25.924;28.194;2023-04-03T05:00:38;31;31;
40947;PMS5003;49382;-25.924;28.194;2023-04-03T05:03:04;32;32;
40947;PMS5003;49382;-25.924;28.194;2023-04-03T05:05:29;32;32;
40947;PMS5003;49382;-25.924;28.194;2023-04-03T05:07:54;35;34;
40947;PMS5003;49382;-25.924;28.194;2023-04-03T05:10:20;33;32;
40947;PMS5003;49382;-25.924;28.194;2023-04-03T05:12:45;33;33;
40947;PMS5003;49382;-25.924;28.194;2023-04-03T05:15:10;30;30;
40947;PMS5003;49382;-25.924;28.194;2023-04-03T05:17:36;32;32;
40947;PMS5003;49382;-25.924;28.194;2023-04-03T05:20:01;30;30;
40947;PMS5003;49382;-25.924;28.194;2023-04-03T05:22:26;34;34;
40947;PMS5003;49382;-25.924;28.194;2023-04-03T05:24:52;32;32;
40947;PMS5003;49382;-25.924;28.194;2023-04-03T05:27:17;33;32;
40947;PMS5003;49382;-25.924;28.194;2023-04-03T05:29:42;32;32;
40947;PMS5003;49382;-25.924;28.194;2023-04-03T05:32:08;31;31;
40947;PMS5003;49382;-25.924;28.194;2023-04-03T05:34:33;35;34;
40947;PMS5003;49382;-25.924;28.194;2023-04-03T05:36:58;33;32;
40947;PMS5003;49382;-25.924;28.194;2023-04-03T05:39:23;32;31;
40947;PMS5003;49382;-25.924;28.194;2023-04-03T05:41:49;37;36;
40947;PMS5003;49382;-25.924;28.194;2023-04-03T05:44:15;30;29;
40947;PMS5003;49382;-25.924;28.194;2023-04-03T05:46:40;36;35;
40947;PMS5003;49382;-25.924;28.194;2023-04-03T05:49:05;32;32;
40947;PMS5003;49382;-25.924;28.194;2023-04-03T05:51:31;30;30;
40947;PMS5003;49382;-25.924;28.194;2023-04-03T05:53:56;28;28;
40947;PMS5003;49382;-25.924;28.194;2023-04-03T05:56:20;34;34;
40947;PMS5003;49382;-25.924;28.194;2023-04-03T05:58:46;36;35;
40947;PMS5003;49382;-25.924;28.194;2023-04-03T06:01:11;33;33;
40947;PMS5003;49382;-25.924;28.194;2023-04-03T06:03:36;34;34;
40947;PMS5003;49382;-25.924;28.194;2023-04-03T06:06:03;37;36;
40947;PMS5003;49382;-25.924;28.194;2023-04-03T06:08:27;31;31;
40947;PMS5003;49382;-25.924;28.194;2023-04-03T06:10:53;32;32;
40947;PMS5003;49382;-25.924;28.194;2023-04-03T06:13:18;31;31;
40947;PMS5003;49382;-25.924;28.194;2023-04-03T06:15:43;33;33;
40947;PMS5003;49382;-25.924;28.194;2023-04-03T06:18:09;31;30;
40947;PMS5003;49382;-25.924;28.194;2023-04-03T06:20:34;31;30;
40947;PMS5003;49382;-25.924;28.194;2023-04-03T06:23:00;31;31;
40947;PMS5003;49382;-25.924;28.194;2023-04-03T06:25:25;34;33;
40947;PMS5003;49382;-25.924;28.194;2023-04-03T06:27:51;35;34;
40947;PMS5003;49382;-25.924;28.194;2023-04-03T06:30:17;33;33;
40947;PMS5003;49382;-25.924;28.194;2023-04-03T06:32:42;29;29;
40947;PMS5003;49382;-25.924;28.194;2023-04-03T06:35:08;33;32;
40947;PMS5003;49382;-25.924;28.194;2023-04-03T06:37:33;31;30;
40947;PMS5003;49382;-25.924;28.194;2023-04-03T06:39:59;27;26;
40947;PMS5003;49382;-25.924;28.194;2023-04-03T06:42:25;26;26;
40947;PMS5003;49382;-25.924;28.194;2023-04-03T06:44:50;25;25;
40947;PMS5003;49382;-25.924;28.194;2023-04-03T06:47:17;29;27;
40947;PMS5003;49382;-25.924;28.194;2023-04-03T06:49:42;25;25;
40947;PMS5003;49382;-25.924;28.194;2023-04-03T06:52:08;26;25;
40947;PMS5003;49382;-25.924;28.194;2023-04-03T06:54:33;30;28;
40947;PMS5003;49382;-25.924;28.194;2023-04-03T06:56:59;24;23;
40947;PMS5003;49382;-25.924;28.194;2023-04-03T06:59:24;22;22;
40947;PMS5003;49382;-25.924;28.194;2023-04-03T07:01:50;21;21;
40947;PMS5003;49382;-25.924;28.194;2023-04-03T07:04:16;20;20;
40947;PMS5003;49382;-25.924;28.194;2023-04-03T07:06:41;21;21;
40947;PMS5003;49382;-25.924;28.194;2023-04-03T07:09:07;22;22;
40947;PMS5003;49382;-25.924;28.194;2023-04-03T07:11:33;19;19;
40947;PMS5003;49382;-25.924;28.194;2023-04-03T07:13:59;18;18;
40947;PMS5003;49382;-25.924;28.194;2023-04-03T07:16:25;21;21;
40947;PMS5003;49382;-25.924;28.194;2023-04-03T07:18:50;19;19;
40947;PMS5003;49382;-25.924;28.194;2023-04-03T07:21:16;19;19;
40947;PMS5003;49382;-25.924;28.194;2023-04-03T07:23:42;21;20;
40947;PMS5003;49382;-25.924;28.194;2023-04-03T07:26:08;29;29;
40947;PMS5003;49382;-25.924;28.194;2023-04-03T07:28:33;44;43;
40947;PMS5003;49382;-25.924;28.194;2023-04-03T07:31:00;29;28;
40947;PMS5003;49382;-25.924;28.194;2023-04-03T07:33:24;75;75;
40947;PMS5003;49382;-25.924;28.194;2023-04-03T07:35:49;28;28;
40947;PMS5003;49382;-25.924;28.194;2023-04-03T07:38:15;20;19;
40947;PMS5003;49382;-25.924;28.194;2023-04-03T07:40:41;20;20;
40947;PMS5003;49382;-25.924;28.194;2023-04-03T07:43:06;19;19;
40947;PMS5003;49382;-25.924;28.194;2023-04-03T07:45:34;20;20;
40947;PMS5003;49382;-25.924;28.194;2023-04-03T07:47:58;20;19;
40947;PMS5003;49382;-25.924;28.194;2023-04-03T07:50:24;24;24;
40947;PMS5003;49382;-25.924;28.194;2023-04-03T07:52:49;22;22;
40947;PMS5003;49382;-25.924;28.194;2023-04-03T07:55:15;24;23;
40947;PMS5003;49382;-25.924;28.194;2023-04-03T07:57:41;19;19;
40947;PMS5003;49382;-25.924;28.194;2023-04-03T08:00:06;22;21;
40947;PMS5003;49382;-25.924;28.194;2023-04-03T08:02:31;20;20;
40947;PMS5003;49382;-25.924;28.194;2023-04-03T08:04:57;21;20;
40947;PMS5003;49382;-25.924;28.194;2023-04-03T08:07:23;19;19;
40947;PMS5003;49382;-25.924;28.194;2023-04-03T08:09:49;21;21;
40947;PMS5003;49382;-25.924;28.194;2023-04-03T08:12:14;22;22;
40947;PMS5003;49382;-25.924;28.194;2023-04-03T08:14:40;19;19;
40947;PMS5003;49382;-25.924;28.194;2023-04-03T08:17:06;19;19;
40947;PMS5003;49382;-25.924;28.194;2023-04-03T08:19:32;20;20;
40947;PMS5003;49382;-25.924;28.194;2023-04-03T08:21:57;18;18;
40947;PMS5003;49382;-25.924;28.194;2023-04-03T08:24:23;19;19;
40947;PMS5003;49382;-25.924;28.194;2023-04-03T08:26:49;19;18;
40947;PMS5003;49382;-25.924;28.194;2023-04-03T08:29:15;16;16;
40947;PMS5003;49382;-25.924;28.194;2023-04-03T08:31:40;38;38;
40947;PMS5003;49382;-25.924;28.194;2023-04-03T08:34:05;22;22;
40947;PMS5003;49382;-25.924;28.194;2023-04-03T08:36:31;23;23;
40947;PMS5003;49382;-25.924;28.194;2023-04-03T08:38:56;17;15;
40947;PMS5003;49382;-25.924;28.194;2023-04-03T08:41:26;18;18;
40947;PMS5003;49382;-25.924;28.194;2023-04-03T08:46:14;17;17;
40947;PMS5003;49382;-25.924;28.194;2023-04-03T08:48:40;18;18;
40947;PMS5003;49382;-25.924;28.194;2023-04-03T08:51:08;20;20;
40947;PMS5003;49382;-25.924;28.194;2023-04-03T08:53:32;22;22;
40947;PMS5003;49382;-25.924;28.194;2023-04-03T08:55:56;20;20;
40947;PMS5003;49382;-25.924;28.194;2023-04-03T08:58:22;19;19;
40947;PMS5003;49382;-25.924;28.194;2023-04-03T09:00:48;18;18;
40947;PMS5003;49382;-25.924;28.194;2023-04-03T09:03:14;20;19;
40947;PMS5003;49382;-25.924;28.194;2023-04-03T09:05:40;21;20;
40947;PMS5003;49382;-25.924;28.194;2023-04-03T09:08:06;20;20;
40947;PMS5003;49382;-25.924;28.194;2023-04-03T09:10:32;22;22;
40947;PMS5003;49382;-25.924;28.194;2023-04-03T09:12:58;19;19;
40947;PMS5003;49382;-25.924;28.194;2023-04-03T09:15:22;18;18;
40947;PMS5003;49382;-25.924;28.194;2023-04-03T09:17:52;20;20;
40947;PMS5003;49382;-25.924;28.194;2023-04-03T09:20:16;21;21;
40947;PMS5003;49382;-25.924;28.194;2023-04-03T09:22:40;19;19;
40947;PMS5003;49382;-25.924;28.194;2023-04-03T09:25:07;24;22;
40947;PMS5003;49382;-25.924;28.194;2023-04-03T09:27:30;22;22;
40947;PMS5003;49382;-25.924;28.194;2023-04-03T09:29:56;21;21;
40947;PMS5003;49382;-25.924;28.194;2023-04-03T09:32:25;21;21;
40947;PMS5003;49382;-25.924;28.194;2023-04-03T09:34:48;23;22;
40947;PMS5003;49382;-25.924;28.194;2023-04-03T09:37:21;20;20;
40947;PMS5003;49382;-25.924;28.194;2023-04-03T09:42:05;24;24;
40947;PMS5003;49382;-25.924;28.194;2023-04-03T09:44:31;21;21;
40947;PMS5003;49382;-25.924;28.194;2023-04-03T09:46:56;23;23;
40947;PMS5003;49382;-25.924;28.194;2023-04-03T09:49:21;25;24;
40947;PMS5003;49382;-25.924;28.194;2023-04-03T09:51:47;34;34;
40947;PMS5003;49382;-25.924;28.194;2023-04-03T09:56:39;38;38;
40947;PMS5003;49382;-25.924;28.194;2023-04-03T09:59:07;35;35;
40947;PMS5003;49382;-25.924;28.194;2023-04-03T10:01:30;37;36;
40947;PMS5003;49382;-25.924;28.194;2023-04-03T10:06:22;28;28;
40947;PMS5003;49382;-25.924;28.194;2023-04-03T10:08:46;26;26;
40947;PMS5003;49382;-25.924;28.194;2023-04-03T10:11:14;39;39;
40947;PMS5003;49382;-25.924;28.194;2023-04-03T10:16:04;25;25;
40947;PMS5003;49382;-25.924;28.194;2023-04-03T10:18:31;27;27;
40947;PMS5003;49382;-25.924;28.194;2023-04-03T10:20:54;39;38;
40947;PMS5003;49382;-25.924;28.194;2023-04-03T10:23:21;35;35;
40947;PMS5003;49382;-25.924;28.194;2023-04-03T10:25:48;33;33;
40947;PMS5003;49382;-25.924;28.194;2023-04-03T10:28:12;33;32;
40947;PMS5003;49382;-25.924;28.194;2023-04-03T10:30:41;33;33;
40947;PMS5003;49382;-25.924;28.194;2023-04-03T10:35:33;26;26;
40947;PMS5003;49382;-25.924;28.194;2023-04-03T10:37:57;25;25;
40947;PMS5003;49382;-25.924;28.194;2023-04-03T10:40:23;26;26;
40947;PMS5003;49382;-25.924;28.194;2023-04-03T10:42:46;27;27;
40947;PMS5003;49382;-25.924;28.194;2023-04-03T10:45:17;27;27;
40947;PMS5003;49382;-25.924;28.194;2023-04-03T10:47:37;31;30;
40947;PMS5003;49382;-25.924;28.194;2023-04-03T10:50:04;35;35;
40947;PMS5003;49382;-25.924;28.194;2023-04-03T10:52:29;30;30;
40947;PMS5003;49382;-25.924;28.194;2023-04-03T10:54:56;25;24;
40947;PMS5003;49382;-25.924;28.194;2023-04-03T10:57:20;24;24;
40947;PMS5003;49382;-25.924;28.194;2023-04-03T10:59:45;29;29;
40947;PMS5003;49382;-25.924;28.194;2023-04-03T11:02:13;26;26;
40947;PMS5003;49382;-25.924;28.194;2023-04-03T11:04:36;24;24;
40947;PMS5003;49382;-25.924;28.194;2023-04-03T11:07:02;31;31;
40947;PMS5003;49382;-25.924;28.194;2023-04-03T11:09:28;36;36;
40947;PMS5003;49382;-25.924;28.194;2023-04-03T11:11:54;28;28;
40947;PMS5003;49382;-25.924;28.194;2023-04-03T11:14:20;27;27;
40947;PMS5003;49382;-25.924;28.194;2023-04-03T11:16:45;31;31;
40947;PMS5003;49382;-25.924;28.194;2023-04-03T11:19:11;34;34;
40947;PMS5003;49382;-25.924;28.194;2023-04-03T11:21:36;35;35;
40947;PMS5003;49382;-25.924;28.194;2023-04-03T11:24:01;35;33;
40947;PMS5003;49382;-25.924;28.194;2023-04-03T11:26:27;31;31;
40947;PMS5003;49382;-25.924;28.194;2023-04-03T11:28:53;37;37;
40947;PMS5003;49382;-25.924;28.194;2023-04-03T11:31:25;31;31;
40947;PMS5003;49382;-25.924;28.194;2023-04-03T11:33:45;29;29;
40947;PMS5003;49382;-25.924;28.194;2023-04-03T11:36:10;34;34;
40947;PMS5003;49382;-25.924;28.194;2023-04-03T11:38:36;36;36;
40947;PMS5003;49382;-25.924;28.194;2023-04-03T11:41:01;36;36;
40947;PMS5003;49382;-25.924;28.194;2023-04-03T11:43:27;26;26;
40947;PMS5003;49382;-25.924;28.194;2023-04-03T11:45:53;25;25;
40947;PMS5003;49382;-25.924;28.194;2023-04-03T11:50:44;27;27;
40947;PMS5003;49382;-25.924;28.194;2023-04-03T11:58:04;23;23;
40947;PMS5003;49382;-25.924;28.194;2023-04-03T12:02:53;22;22;
40947;PMS5003;49382;-25.924;28.194;2023-04-03T12:07:44;22;22;
40947;PMS5003;49382;-25.924;28.194;2023-04-03T12:12:38;17;17;
40947;PMS5003;49382;-25.924;28.194;2023-04-03T12:17:27;21;20;
40947;PMS5003;49382;-25.924;28.194;2023-04-03T12:19:53;20;20;
40947;PMS5003;49382;-25.924;28.194;2023-04-03T12:22:18;22;21;
40947;PMS5003;49382;-25.924;28.194;2023-04-03T12:24:44;24;23;
40947;PMS5003;49382;-25.924;28.194;2023-04-03T12:27:16;21;21;
40947;PMS5003;49382;-25.924;28.194;2023-04-03T12:29:36;22;22;
40947;PMS5003;49382;-25.924;28.194;2023-04-03T12:32:06;21;21;
40947;PMS5003;49382;-25.924;28.194;2023-04-03T12:34:35;20;20;
40947;PMS5003;49382;-25.924;28.194;2023-04-03T12:36:55;21;21;
40947;PMS5003;49382;-25.924;28.194;2023-04-03T12:41:45;21;21;
40947;PMS5003;49382;-25.924;28.194;2023-04-03T12:46:37;20;20;
40947;PMS5003;49382;-25.924;28.194;2023-04-03T12:49:01;19;19;
40947;PMS5003;49382;-25.924;28.194;2023-04-03T12:51:28;19;19;
40947;PMS5003;49382;-25.924;28.194;2023-04-03T12:53:52;18;18;
40947;PMS5003;49382;-25.924;28.194;2023-04-03T12:56:19;20;19;
40947;PMS5003;49382;-25.924;28.194;2023-04-03T12:58:44;17;17;
40947;PMS5003;49382;-25.924;28.194;2023-04-03T13:01:10;20;20;
40947;PMS5003;49382;-25.924;28.194;2023-04-03T13:03:35;20;20;
40947;PMS5003;49382;-25.924;28.194;2023-04-03T13:06:02;18;18;
40947;PMS5003;49382;-25.924;28.194;2023-04-03T13:08:27;20;19;
40947;PMS5003;49382;-25.924;28.194;2023-04-03T13:10:54;17;17;
40947;PMS5003;49382;-25.924;28.194;2023-04-03T13:13:18;18;18;
40947;PMS5003;49382;-25.924;28.194;2023-04-03T13:15:45;19;19;
40947;PMS5003;49382;-25.924;28.194;2023-04-03T13:20:36;19;19;
40947;PMS5003;49382;-25.924;28.194;2023-04-03T13:23:02;17;17;
40947;PMS5003;49382;-25.924;28.194;2023-04-03T13:25:28;18;18;
40947;PMS5003;49382;-25.924;28.194;2023-04-03T13:27:52;20;20;
40947;PMS5003;49382;-25.924;28.194;2023-04-03T13:30:21;20;20;
40947;PMS5003;49382;-25.924;28.194;2023-04-03T13:32:44;17;17;
40947;PMS5003;49382;-25.924;28.194;2023-04-03T13:37:35;22;21;
40947;PMS5003;49382;-25.924;28.194;2023-04-03T13:40:03;20;20;
40947;PMS5003;49382;-25.924;28.194;2023-04-03T13:42:28;18;18;
40947;PMS5003;49382;-25.924;28.194;2023-04-03T13:47:20;18;18;
40947;PMS5003;49382;-25.924;28.194;2023-04-03T13:49:45;19;19;
40947;PMS5003;49382;-25.924;28.194;2023-04-03T13:54:37;18;18;
40947;PMS5003;49382;-25.924;28.194;2023-04-03T13:57:02;19;19;
40947;PMS5003;49382;-25.924;28.194;2023-04-03T13:59:28;17;17;
40947;PMS5003;49382;-25.924;28.194;2023-04-03T14:01:53;17;17;
40947;PMS5003;49382;-25.924;28.194;2023-04-03T14:04:19;18;18;
40947;PMS5003;49382;-25.924;28.194;2023-04-03T14:06:44;19;19;
40947;PMS5003;49382;-25.924;28.194;2023-04-03T14:09:10;18;18;
40947;PMS5003;49382;-25.924;28.194;2023-04-03T14:11:36;19;19;
40947;PMS5003;49382;-25.924;28.194;2023-04-03T14:14:05;18;18;
40947;PMS5003;49382;-25.924;28.194;2023-04-03T14:16:29;20;20;
40947;PMS5003;49382;-25.924;28.194;2023-04-03T14:18:53;18;18;
40947;PMS5003;49382;-25.924;28.194;2023-04-03T14:21:19;20;20;
40947;PMS5003;49382;-25.924;28.194;2023-04-03T14:23:44;19;19;
40947;PMS5003;49382;-25.924;28.194;2023-04-03T14:26:12;18;17;
40947;PMS5003;49382;-25.924;28.194;2023-04-03T14:28:36;20;20;
40947;PMS5003;49382;-25.924;28.194;2023-04-03T14:31:02;18;18;
40947;PMS5003;49382;-25.924;28.194;2023-04-03T14:33:27;18;18;
40947;PMS5003;49382;-25.924;28.194;2023-04-03T14:35:53;19;19;
40947;PMS5003;49382;-25.924;28.194;2023-04-03T14:38:22;20;20;
40947;PMS5003;49382;-25.924;28.194;2023-04-03T14:40:44;18;18;
40947;PMS5003;49382;-25.924;28.194;2023-04-03T14:43:10;18;18;
40947;PMS5003;49382;-25.924;28.194;2023-04-03T14:45:36;17;17;
40947;PMS5003;49382;-25.924;28.194;2023-04-03T14:48:02;18;18;
40947;PMS5003;49382;-25.924;28.194;2023-04-03T14:50:27;19;19;
40947;PMS5003;49382;-25.924;28.194;2023-04-03T14:52:54;19;19;
40947;PMS5003;49382;-25.924;28.194;2023-04-03T14:55:21;17;16;
40947;PMS5003;49382;-25.924;28.194;2023-04-03T14:57:44;18;18;
40947;PMS5003;49382;-25.924;28.194;2023-04-03T15:00:12;17;17;
40947;PMS5003;49382;-25.924;28.194;2023-04-03T15:02:37;20;19;
40947;PMS5003;49382;-25.924;28.194;2023-04-03T15:05:03;16;16;
40947;PMS5003;49382;-25.924;28.194;2023-04-03T15:07:28;18;18;
40947;PMS5003;49382;-25.924;28.194;2023-04-03T15:09:53;20;19;
40947;PMS5003;49382;-25.924;28.194;2023-04-03T15:12:20;20;20;
40947;PMS5003;49382;-25.924;28.194;2023-04-03T15:14:45;18;18;
40947;PMS5003;49382;-25.924;28.194;2023-04-03T15:17:12;18;18;
40947;PMS5003;49382;-25.924;28.194;2023-04-03T15:19:37;19;19;
40947;PMS5003;49382;-25.924;28.194;2023-04-03T15:22:02;19;18;
40947;PMS5003;49382;-25.924;28.194;2023-04-03T15:24:28;19;19;
40947;PMS5003;49382;-25.924;28.194;2023-04-03T15:26:54;20;20;
40947;PMS5003;49382;-25.924;28.194;2023-04-03T15:29:20;20;19;
40947;PMS5003;49382;-25.924;28.194;2023-04-03T15:31:45;23;22;
40947;PMS5003;49382;-25.924;28.194;2023-04-03T15:34:11;22;21;
40947;PMS5003;49382;-25.924;28.194;2023-04-03T15:36:37;22;21;
40947;PMS5003;49382;-25.924;28.194;2023-04-03T15:39:03;19;19;
40947;PMS5003;49382;-25.924;28.194;2023-04-03T15:41:28;20;20;
40947;PMS5003;49382;-25.924;28.194;2023-04-03T15:43:54;22;20;
40947;PMS5003;49382;-25.924;28.194;2023-04-03T15:46:20;21;21;
40947;PMS5003;49382;-25.924;28.194;2023-04-03T15:48:46;20;20;
40947;PMS5003;49382;-25.924;28.194;2023-04-03T15:51:11;19;19;
40947;PMS5003;49382;-25.924;28.194;2023-04-03T15:53:37;17;17;
40947;PMS5003;49382;-25.924;28.194;2023-04-03T15:56:03;20;20;
40947;PMS5003;49382;-25.924;28.194;2023-04-03T15:58:29;21;21;
40947;PMS5003;49382;-25.924;28.194;2023-04-03T16:00:54;22;22;
40947;PMS5003;49382;-25.924;28.194;2023-04-03T16:03:20;20;20;
40947;PMS5003;49382;-25.924;28.194;2023-04-03T16:05:46;24;24;
40947;PMS5003;49382;-25.924;28.194;2023-04-03T16:08:12;23;23;
40947;PMS5003;49382;-25.924;28.194;2023-04-03T16:10:37;24;24;
40947;PMS5003;49382;-25.924;28.194;2023-04-03T16:13:03;22;22;
40947;PMS5003;49382;-25.924;28.194;2023-04-03T16:15:29;25;24;
40947;PMS5003;49382;-25.924;28.194;2023-04-03T16:17:54;22;21;
40947;PMS5003;49382;-25.924;28.194;2023-04-03T16:20:20;23;23;
40947;PMS5003;49382;-25.924;28.194;2023-04-03T16:22:46;21;21;